createdAt,value
2019-03-31T00:00:19.594Z,0
2019-03-31T00:01:19.709Z,0
2019-03-31T00:02:19.845Z,0
2019-03-31T00:03:19.990Z,0
2019-03-31T00:04:20.096Z,0
2019-03-31T00:05:20.232Z,0
2019-03-31T00:06:20.346Z,0
2019-03-31T00:07:20.469Z,0
2019-03-31T00:08:20.566Z,0
2019-03-31T00:09:20.666Z,0
2019-03-31T00:10:20.771Z,0
2019-03-31T00:11:20.876Z,0
2019-03-31T00:12:21.005Z,0
2019-03-31T00:13:21.111Z,0
2019-03-31T00:14:21.217Z,0
2019-03-31T00:15:21.327Z,0
2019-03-31T00:16:21.448Z,0
2019-03-31T00:17:21.586Z,0
2019-03-31T00:18:21.684Z,0
2019-03-31T00:19:21.785Z,0
2019-03-31T00:20:21.875Z,0
2019-03-31T00:21:21.981Z,0
2019-03-31T00:22:22.112Z,0
2019-03-31T00:23:22.211Z,0
2019-03-31T00:24:22.309Z,0
2019-03-31T00:25:22.423Z,0
2019-03-31T00:26:22.528Z,0
2019-03-31T00:27:22.716Z,0
2019-03-31T00:28:22.657Z,0
2019-03-31T00:29:22.766Z,0
2019-03-31T00:30:22.869Z,0
2019-03-31T00:31:22.950Z,0
2019-03-31T00:32:23.102Z,0
2019-03-31T00:33:23.076Z,0
2019-03-31T00:34:23.185Z,0
2019-03-31T00:35:23.304Z,0
2019-03-31T00:36:23.436Z,0
2019-03-31T00:37:23.625Z,0
2019-03-31T00:38:23.582Z,0
2019-03-31T00:39:23.745Z,0
2019-03-31T00:40:23.846Z,0
2019-03-31T00:41:23.988Z,0
2019-03-31T00:42:24.141Z,0
2019-03-31T00:43:24.249Z,0
2019-03-31T00:44:24.358Z,0
2019-03-31T00:45:24.470Z,0
2019-03-31T00:46:25.566Z,0
2019-03-31T00:47:24.700Z,0
2019-03-31T00:48:24.934Z,0
2019-03-31T00:49:24.819Z,0
2019-03-31T00:50:24.928Z,0
2019-03-31T00:51:25.060Z,0
2019-03-31T00:52:25.240Z,0
2019-03-31T00:53:25.181Z,0
2019-03-31T00:54:27.721Z,0
2019-03-31T00:55:25.395Z,0
2019-03-31T00:56:25.506Z,0
2019-03-31T00:57:25.695Z,0
2019-03-31T00:58:25.655Z,0
2019-03-31T00:59:25.637Z,0
2019-03-31T01:00:25.737Z,0
2019-03-31T01:01:36.076Z,0
2019-03-31T01:02:26.932Z,0
2019-03-31T01:03:26.041Z,0
2019-03-31T01:04:26.163Z,0
2019-03-31T01:05:26.256Z,0
2019-03-31T01:06:26.362Z,0
2019-03-31T01:07:26.502Z,0
2019-03-31T01:08:26.661Z,0
2019-03-31T01:09:26.763Z,0
2019-03-31T01:10:26.887Z,0
2019-03-31T01:11:27.055Z,0
2019-03-31T01:12:27.020Z,0
2019-03-31T01:13:27.037Z,0
2019-03-31T01:14:27.165Z,0
2019-03-31T01:15:27.299Z,0
2019-03-31T01:16:27.402Z,0
2019-03-31T01:17:27.516Z,0
2019-03-31T01:18:27.503Z,0
2019-03-31T01:19:27.634Z,0
2019-03-31T01:20:27.721Z,0
2019-03-31T01:21:27.824Z,0
2019-03-31T01:22:27.922Z,0
2019-03-31T01:23:27.918Z,0
2019-03-31T01:24:28.011Z,0
2019-03-31T01:25:28.151Z,0
2019-03-31T01:26:28.299Z,0
2019-03-31T01:27:28.405Z,0
2019-03-31T01:28:28.410Z,0
2019-03-31T01:29:28.538Z,0
2019-03-31T01:30:28.650Z,0
2019-03-31T01:31:28.757Z,0
2019-03-31T01:32:28.853Z,0
2019-03-31T01:33:28.993Z,0
2019-03-31T01:34:29.103Z,0
2019-03-31T01:35:29.211Z,0
2019-03-31T01:36:29.331Z,0
2019-03-31T01:37:29.442Z,0
2019-03-31T01:38:29.573Z,0
2019-03-31T01:39:29.690Z,0
2019-03-31T01:40:29.791Z,0
2019-03-31T01:41:29.912Z,0
2019-03-31T01:42:30.023Z,0
2019-03-31T01:43:30.189Z,0
2019-03-31T01:44:30.325Z,0
2019-03-31T01:45:30.428Z,0
2019-03-31T01:46:30.536Z,0
2019-03-31T01:47:30.643Z,0
2019-03-31T01:48:31.295Z,0
2019-03-31T01:49:30.893Z,0
2019-03-31T01:50:30.995Z,0
2019-03-31T01:51:31.098Z,0
2019-03-31T01:52:31.221Z,0
2019-03-31T01:53:31.349Z,0
2019-03-31T01:54:31.426Z,0
2019-03-31T01:55:31.542Z,0
2019-03-31T01:56:31.688Z,0
2019-03-31T01:57:31.788Z,0
2019-03-31T01:58:31.918Z,0
2019-03-31T01:59:32.048Z,0
2019-03-31T02:00:32.153Z,0
2019-03-31T02:01:32.261Z,0
2019-03-31T02:02:32.372Z,0
2019-03-31T02:03:32.494Z,0
2019-03-31T02:04:32.605Z,0
2019-03-31T02:05:32.708Z,0
2019-03-31T02:06:32.806Z,0
2019-03-31T02:07:32.914Z,0
2019-03-31T02:08:33.044Z,0
2019-03-31T02:09:33.182Z,0
2019-03-31T02:10:33.305Z,0
2019-03-31T02:11:33.416Z,0
2019-03-31T02:12:33.510Z,0
2019-03-31T02:13:33.644Z,0
2019-03-31T02:14:33.747Z,0
2019-03-31T02:15:33.867Z,0
2019-03-31T02:16:33.969Z,0
2019-03-31T02:17:34.065Z,0
2019-03-31T02:18:34.194Z,0
2019-03-31T02:19:34.295Z,0
2019-03-31T02:20:34.398Z,0
2019-03-31T02:21:34.508Z,0
2019-03-31T02:22:34.617Z,0
2019-03-31T02:23:34.752Z,0
2019-03-31T02:24:34.860Z,0
2019-03-31T02:25:34.974Z,0
2019-03-31T02:26:35.088Z,0
2019-03-31T02:27:35.191Z,0
2019-03-31T02:28:35.317Z,0
2019-03-31T02:29:35.424Z,0
2019-03-31T02:30:35.530Z,0
2019-03-31T02:31:35.628Z,0
2019-03-31T02:32:35.741Z,0
2019-03-31T02:33:35.901Z,0
2019-03-31T02:34:36.012Z,0
2019-03-31T02:35:36.093Z,0
2019-03-31T02:36:36.209Z,0
2019-03-31T02:37:36.376Z,0
2019-03-31T02:38:36.493Z,0
2019-03-31T02:39:36.470Z,0
2019-03-31T02:40:36.563Z,0
2019-03-31T02:41:36.667Z,0
2019-03-31T02:42:36.772Z,0
2019-03-31T02:43:37.167Z,0
2019-03-31T02:44:36.950Z,0
2019-03-31T02:45:37.047Z,0
2019-03-31T02:46:37.150Z,0
2019-03-31T02:47:37.249Z,0
2019-03-31T02:48:37.414Z,0
2019-03-31T02:49:37.363Z,0
2019-03-31T02:50:37.452Z,0
2019-03-31T02:51:37.557Z,0
2019-03-31T02:52:37.670Z,0
2019-03-31T02:53:37.819Z,0
2019-03-31T02:54:37.929Z,0
2019-03-31T02:55:38.033Z,0
2019-03-31T02:56:38.134Z,0
2019-03-31T02:57:38.224Z,0
2019-03-31T02:58:38.359Z,0
2019-03-31T02:59:38.469Z,0
2019-03-31T03:00:38.567Z,0
2019-03-31T03:01:38.670Z,0
2019-03-31T03:02:41.841Z,0
2019-03-31T03:03:38.903Z,0
2019-03-31T03:04:38.838Z,0
2019-03-31T03:05:38.936Z,0
2019-03-31T03:06:39.058Z,0
2019-03-31T03:07:39.163Z,0
2019-03-31T03:08:39.322Z,0
2019-03-31T03:09:39.420Z,0
2019-03-31T03:10:39.549Z,0
2019-03-31T03:11:39.657Z,0
2019-03-31T03:12:39.768Z,0
2019-03-31T03:13:39.951Z,0
2019-03-31T03:14:39.879Z,0
2019-03-31T03:15:39.989Z,0
2019-03-31T03:16:40.120Z,0
2019-03-31T03:17:40.229Z,0
2019-03-31T03:18:40.358Z,0
2019-03-31T03:19:40.466Z,0
2019-03-31T03:20:40.562Z,0
2019-03-31T03:21:40.659Z,0
2019-03-31T03:22:40.794Z,0
2019-03-31T03:23:40.903Z,0
2019-03-31T03:24:40.891Z,0
2019-03-31T03:25:54.800Z,0
2019-03-31T03:26:42.086Z,0
2019-03-31T03:27:41.196Z,0
2019-03-31T03:28:41.335Z,0
2019-03-31T03:29:41.409Z,0
2019-03-31T03:30:41.563Z,0
2019-03-31T03:31:41.585Z,0
2019-03-31T03:33:10.714Z,0
2019-03-31T03:33:42.788Z,0
2019-03-31T03:34:41.948Z,0
2019-03-31T03:35:42.046Z,0
2019-03-31T03:36:43.401Z,0
2019-03-31T03:37:42.255Z,0
2019-03-31T03:38:42.387Z,0
2019-03-31T03:39:42.520Z,0
2019-03-31T03:40:42.621Z,0
2019-03-31T03:41:42.724Z,0
2019-03-31T03:42:42.868Z,0
2019-03-31T03:43:54.616Z,0
2019-03-31T03:44:44.076Z,0
2019-03-31T03:45:43.178Z,0
2019-03-31T03:46:43.293Z,0
2019-03-31T03:47:43.386Z,0
2019-03-31T03:48:44.343Z,0
2019-03-31T03:49:43.693Z,0
2019-03-31T03:50:43.781Z,0
2019-03-31T03:51:43.945Z,0
2019-03-31T03:52:44.039Z,0
2019-03-31T03:53:44.164Z,0
2019-03-31T03:54:44.303Z,0
2019-03-31T03:55:44.401Z,0
2019-03-31T03:56:44.505Z,0
2019-03-31T03:57:44.605Z,0
2019-03-31T03:58:44.709Z,0
2019-03-31T03:59:44.878Z,0
2019-03-31T04:00:44.989Z,0
2019-03-31T04:01:45.100Z,0
2019-03-31T04:02:45.210Z,0
2019-03-31T04:03:45.310Z,0
2019-03-31T04:04:45.445Z,0
2019-03-31T04:05:45.557Z,0
2019-03-31T04:06:45.653Z,0
2019-03-31T04:07:45.756Z,0
2019-03-31T04:08:45.841Z,0
2019-03-31T04:09:45.978Z,0
2019-03-31T04:10:46.092Z,0
2019-03-31T04:11:46.188Z,0
2019-03-31T04:12:46.307Z,0
2019-03-31T04:13:46.424Z,0
2019-03-31T04:14:46.571Z,0
2019-03-31T04:15:46.661Z,0
2019-03-31T04:16:46.778Z,0
2019-03-31T04:17:46.898Z,0
2019-03-31T04:18:46.999Z,0
2019-03-31T04:19:47.134Z,0
2019-03-31T04:20:47.249Z,0
2019-03-31T04:21:47.353Z,0
2019-03-31T04:22:47.463Z,0
2019-03-31T04:23:47.572Z,0
2019-03-31T04:24:47.698Z,0
2019-03-31T04:25:47.798Z,0
2019-03-31T04:26:47.940Z,0
2019-03-31T04:27:48.055Z,0
2019-03-31T04:28:48.154Z,0
2019-03-31T04:29:48.304Z,0
2019-03-31T04:30:48.411Z,0
2019-03-31T04:31:48.522Z,0
2019-03-31T04:32:48.619Z,0
2019-03-31T04:33:51.910Z,0
2019-03-31T04:34:48.811Z,0
2019-03-31T04:35:48.930Z,0
2019-03-31T04:36:49.045Z,0
2019-03-31T04:37:49.147Z,0
2019-03-31T04:38:49.253Z,0
2019-03-31T04:39:50.507Z,0
2019-03-31T04:40:49.513Z,0
2019-03-31T04:41:49.595Z,0
2019-03-31T04:42:49.703Z,0
2019-03-31T04:43:49.835Z,0
2019-03-31T04:44:50.010Z,0
2019-03-31T04:45:49.958Z,0
2019-03-31T04:46:50.077Z,0
2019-03-31T04:47:50.205Z,0
2019-03-31T04:48:50.313Z,0
2019-03-31T04:49:50.711Z,0
2019-03-31T04:50:52.138Z,0
2019-03-31T04:51:50.586Z,0
2019-03-31T04:52:50.737Z,0
2019-03-31T04:53:50.856Z,0
2019-03-31T04:54:50.994Z,0
2019-03-31T04:55:51.101Z,0
2019-03-31T04:56:51.209Z,0
2019-03-31T04:57:51.311Z,0
2019-03-31T04:58:51.416Z,0
2019-03-31T04:59:51.571Z,0
2019-03-31T05:00:51.672Z,0
2019-03-31T05:01:51.775Z,0
2019-03-31T05:02:51.884Z,0
2019-03-31T05:04:03.719Z,0
2019-03-31T05:04:53.094Z,0
2019-03-31T05:05:52.197Z,0
2019-03-31T05:06:52.310Z,0
2019-03-31T05:07:52.463Z,0
2019-03-31T05:08:52.605Z,0
2019-03-31T05:09:52.823Z,0
2019-03-31T05:10:52.816Z,0
2019-03-31T05:11:52.965Z,0
2019-03-31T05:12:52.978Z,0
2019-03-31T05:13:52.982Z,0
2019-03-31T05:14:53.012Z,0
2019-03-31T05:15:52.990Z,0
2019-03-31T05:16:53.051Z,5.625
2019-03-31T05:17:53.141Z,5.625
2019-03-31T05:18:53.195Z,5.625
2019-03-31T05:19:53.289Z,5.625
2019-03-31T05:20:53.364Z,5.625
2019-03-31T05:21:53.410Z,5.625
2019-03-31T05:22:53.441Z,5.625
2019-03-31T05:23:53.482Z,5.625
2019-03-31T05:24:53.576Z,5.625
2019-03-31T05:25:53.630Z,5.625
2019-03-31T05:26:53.696Z,5.625
2019-03-31T05:27:53.800Z,5.625
2019-03-31T05:28:53.844Z,5.625
2019-03-31T05:29:53.927Z,5.625
2019-03-31T05:30:54.006Z,5.625
2019-03-31T05:31:54.114Z,5.625
2019-03-31T05:32:54.159Z,5.625
2019-03-31T05:33:54.209Z,5.625
2019-03-31T05:34:54.257Z,5.625
2019-03-31T05:35:54.312Z,5.625
2019-03-31T05:36:54.417Z,11.25
2019-03-31T05:37:54.518Z,11.25
2019-03-31T05:38:54.562Z,11.25
2019-03-31T05:39:54.612Z,11.25
2019-03-31T05:40:54.753Z,11.25
2019-03-31T05:41:54.815Z,11.25
2019-03-31T05:42:54.855Z,11.25
2019-03-31T05:44:05.342Z,11.25
2019-03-31T05:44:55.951Z,11.25
2019-03-31T05:45:55.043Z,11.25
2019-03-31T05:46:55.147Z,11.25
2019-03-31T05:47:55.219Z,11.25
2019-03-31T05:48:55.284Z,11.25
2019-03-31T05:49:55.338Z,11.25
2019-03-31T05:50:55.445Z,11.25
2019-03-31T05:51:55.499Z,16.875
2019-03-31T05:52:55.536Z,16.875
2019-03-31T05:53:55.602Z,16.875
2019-03-31T05:54:55.643Z,16.875
2019-03-31T05:55:55.734Z,16.875
2019-03-31T05:56:55.776Z,16.875
2019-03-31T05:57:55.831Z,16.875
2019-03-31T05:58:55.883Z,22.5
2019-03-31T05:59:55.931Z,22.5
2019-03-31T06:00:55.998Z,22.5
2019-03-31T06:01:56.055Z,22.5
2019-03-31T06:02:56.097Z,22.5
2019-03-31T06:03:56.164Z,22.5
2019-03-31T06:04:56.216Z,28.125
2019-03-31T06:05:56.291Z,28.125
2019-03-31T06:06:56.334Z,28.125
2019-03-31T06:07:56.412Z,33.75
2019-03-31T06:08:56.479Z,33.75
2019-03-31T06:09:56.563Z,33.75
2019-03-31T06:10:56.640Z,39.375
2019-03-31T06:11:56.701Z,39.375
2019-03-31T06:12:56.775Z,39.375
2019-03-31T06:13:56.816Z,39.375
2019-03-31T06:14:56.891Z,39.375
2019-03-31T06:15:56.961Z,45
2019-03-31T06:16:57.022Z,45
2019-03-31T06:17:57.070Z,50.625
2019-03-31T06:18:57.125Z,56.25
2019-03-31T06:19:57.185Z,56.25
2019-03-31T06:20:57.292Z,56.25
2019-03-31T06:21:57.368Z,56.25
2019-03-31T06:22:57.414Z,61.875
2019-03-31T06:23:57.458Z,67.5
2019-03-31T06:24:57.524Z,67.5
2019-03-31T06:25:57.613Z,67.5
2019-03-31T06:26:57.654Z,67.5
2019-03-31T06:27:57.703Z,67.5
2019-03-31T06:28:57.775Z,67.5
2019-03-31T06:29:57.819Z,67.5
2019-03-31T06:30:58.137Z,67.5
2019-03-31T06:31:58.046Z,73.125
2019-03-31T06:32:58.102Z,73.125
2019-03-31T06:33:58.145Z,73.125
2019-03-31T06:34:58.189Z,78.75
2019-03-31T06:35:58.293Z,84.375
2019-03-31T06:36:58.358Z,90
2019-03-31T06:37:58.418Z,90
2019-03-31T06:38:58.484Z,90
2019-03-31T06:39:58.535Z,95.625
2019-03-31T06:40:58.635Z,101.25
2019-03-31T06:41:58.687Z,106.875
2019-03-31T06:42:58.733Z,106.875
2019-03-31T06:43:58.821Z,106.875
2019-03-31T06:44:58.872Z,101.25
2019-03-31T06:45:59.115Z,106.875
2019-03-31T06:46:59.080Z,101.25
2019-03-31T06:47:59.126Z,101.25
2019-03-31T06:48:59.171Z,101.25
2019-03-31T06:49:59.218Z,106.875
2019-03-31T06:50:59.277Z,101.25
2019-03-31T06:51:59.377Z,106.875
2019-03-31T06:52:59.423Z,106.875
2019-03-31T06:53:59.479Z,106.875
2019-03-31T06:54:59.530Z,112.5
2019-03-31T06:55:59.570Z,112.5
2019-03-31T06:56:59.697Z,106.875
2019-03-31T06:57:59.749Z,101.25
2019-03-31T06:58:59.786Z,101.25
2019-03-31T06:59:59.883Z,101.25
2019-03-31T07:00:59.926Z,106.875
2019-03-31T07:02:02.811Z,112.5
2019-03-31T07:03:00.071Z,112.5
2019-03-31T07:04:00.119Z,118.125
2019-03-31T07:05:01.010Z,118.125
2019-03-31T07:06:00.188Z,112.5
2019-03-31T07:07:00.293Z,123.75
2019-03-31T07:08:00.334Z,123.75
2019-03-31T07:09:00.367Z,135
2019-03-31T07:10:00.446Z,135
2019-03-31T07:11:00.472Z,146.25
2019-03-31T07:12:00.595Z,146.25
2019-03-31T07:13:00.652Z,151.875
2019-03-31T07:14:00.709Z,157.5
2019-03-31T07:15:00.750Z,157.5
2019-03-31T07:16:00.794Z,163.125
2019-03-31T07:17:00.859Z,163.125
2019-03-31T07:18:00.912Z,163.125
2019-03-31T07:19:00.956Z,180
2019-03-31T07:20:01.025Z,168.75
2019-03-31T07:21:01.096Z,168.75
2019-03-31T07:22:01.162Z,180
2019-03-31T07:23:01.208Z,174.375
2019-03-31T07:24:01.261Z,174.375
2019-03-31T07:25:01.341Z,180
2019-03-31T07:26:01.385Z,174.375
2019-03-31T07:27:01.455Z,174.375
2019-03-31T07:28:01.542Z,168.75
2019-03-31T07:29:01.613Z,168.75
2019-03-31T07:30:01.688Z,174.375
2019-03-31T07:31:01.774Z,180
2019-03-31T07:32:01.848Z,174.375
2019-03-31T07:33:01.898Z,174.375
2019-03-31T07:34:01.934Z,174.375
2019-03-31T07:35:02.972Z,185.625
2019-03-31T07:36:02.976Z,180
2019-03-31T07:37:02.038Z,185.625
2019-03-31T07:38:02.088Z,196.875
2019-03-31T07:39:02.203Z,191.25
2019-03-31T07:40:02.373Z,191.25
2019-03-31T07:41:12.299Z,196.875
2019-03-31T07:42:03.462Z,196.875
2019-03-31T07:43:02.364Z,202.5
2019-03-31T07:44:02.343Z,196.875
2019-03-31T07:45:02.390Z,202.5
2019-03-31T07:46:02.439Z,202.5
2019-03-31T07:47:02.575Z,202.5
2019-03-31T07:48:02.652Z,196.875
2019-03-31T07:49:02.683Z,185.625
2019-03-31T07:50:02.724Z,196.875
2019-03-31T07:51:02.777Z,208.125
2019-03-31T07:52:02.891Z,213.75
2019-03-31T07:53:02.940Z,213.75
2019-03-31T07:54:02.994Z,230.625
2019-03-31T07:55:03.125Z,219.375
2019-03-31T07:56:03.177Z,247.5
2019-03-31T07:57:06.648Z,241.875
2019-03-31T07:58:03.354Z,236.25
2019-03-31T07:59:03.368Z,225
2019-03-31T08:00:03.417Z,225
2019-03-31T08:01:03.494Z,241.875
2019-03-31T08:02:03.570Z,241.875
2019-03-31T08:03:03.606Z,236.25
2019-03-31T08:04:03.772Z,241.875
2019-03-31T08:05:03.814Z,225
2019-03-31T08:06:03.911Z,236.25
2019-03-31T08:07:03.958Z,253.125
2019-03-31T08:08:03.978Z,264.375
2019-03-31T08:09:04.081Z,275.625
2019-03-31T08:10:04.086Z,309.375
2019-03-31T08:11:04.164Z,315
2019-03-31T08:12:04.218Z,326.25
2019-03-31T08:13:04.317Z,320.625
2019-03-31T08:14:04.327Z,331.875
2019-03-31T08:15:04.416Z,331.875
2019-03-31T08:16:04.455Z,399.375
2019-03-31T08:17:04.565Z,551.25
2019-03-31T08:18:04.603Z,478.125
2019-03-31T08:19:04.658Z,309.375
2019-03-31T08:20:04.655Z,343.125
2019-03-31T08:21:04.709Z,331.875
2019-03-31T08:22:04.697Z,540
2019-03-31T08:23:04.752Z,382.5
2019-03-31T08:24:06.589Z,585
2019-03-31T08:25:04.913Z,416.25
2019-03-31T08:26:04.953Z,360
2019-03-31T08:27:05.654Z,331.875
2019-03-31T08:28:05.104Z,309.375
2019-03-31T08:29:05.238Z,286.875
2019-03-31T08:30:06.270Z,292.5
2019-03-31T08:31:05.310Z,309.375
2019-03-31T08:32:05.351Z,286.875
2019-03-31T08:33:05.455Z,292.5
2019-03-31T08:34:05.589Z,225
2019-03-31T08:35:05.640Z,219.375
2019-03-31T08:36:05.707Z,236.25
2019-03-31T08:37:05.711Z,241.875
2019-03-31T08:38:05.796Z,253.125
2019-03-31T08:39:05.807Z,241.875
2019-03-31T08:40:05.916Z,219.375
2019-03-31T08:41:05.977Z,230.625
2019-03-31T08:42:06.090Z,258.75
2019-03-31T08:43:06.186Z,253.125
2019-03-31T08:44:06.252Z,241.875
2019-03-31T08:45:06.259Z,247.5
2019-03-31T08:46:06.250Z,258.75
2019-03-31T08:47:06.244Z,298.125
2019-03-31T08:48:06.255Z,354.375
2019-03-31T08:49:06.351Z,360
2019-03-31T08:50:06.366Z,388.125
2019-03-31T08:51:06.434Z,365.625
2019-03-31T08:52:06.499Z,337.5
2019-03-31T08:53:06.617Z,337.5
2019-03-31T08:54:06.679Z,365.625
2019-03-31T08:55:06.714Z,360
2019-03-31T08:56:08.663Z,331.875
2019-03-31T08:57:06.772Z,275.625
2019-03-31T08:58:06.843Z,230.625
2019-03-31T08:59:06.919Z,230.625
2019-03-31T09:00:06.909Z,253.125
2019-03-31T09:01:07.068Z,213.75
2019-03-31T09:02:07.107Z,180
2019-03-31T09:03:07.225Z,157.5
2019-03-31T09:04:07.306Z,151.875
2019-03-31T09:05:07.353Z,168.75
2019-03-31T09:06:07.407Z,196.875
2019-03-31T09:07:07.493Z,213.75
2019-03-31T09:08:07.543Z,281.25
2019-03-31T09:09:07.591Z,303.75
2019-03-31T09:10:07.602Z,315
2019-03-31T09:11:07.659Z,315
2019-03-31T09:12:07.716Z,253.125
2019-03-31T09:13:07.889Z,219.375
2019-03-31T09:14:07.943Z,163.125
2019-03-31T09:15:08.074Z,129.375
2019-03-31T09:16:08.048Z,123.75
2019-03-31T09:17:08.091Z,129.375
2019-03-31T09:18:08.163Z,129.375
2019-03-31T09:19:08.218Z,123.75
2019-03-31T09:20:08.263Z,112.5
2019-03-31T09:21:08.314Z,112.5
2019-03-31T09:22:08.360Z,106.875
2019-03-31T09:23:08.431Z,106.875
2019-03-31T09:24:08.474Z,118.125
2019-03-31T09:25:08.537Z,135
2019-03-31T09:26:08.590Z,163.125
2019-03-31T09:27:08.635Z,168.75
2019-03-31T09:28:08.704Z,174.375
2019-03-31T09:29:08.764Z,163.125
2019-03-31T09:30:08.812Z,163.125
2019-03-31T09:31:08.866Z,174.375
2019-03-31T09:32:08.917Z,196.875
2019-03-31T09:33:09.051Z,225
2019-03-31T09:34:09.096Z,213.75
2019-03-31T09:35:09.144Z,208.125
2019-03-31T09:36:15.800Z,208.125
2019-03-31T09:37:10.224Z,196.875
2019-03-31T09:38:09.291Z,191.25
2019-03-31T09:39:09.339Z,185.625
2019-03-31T09:40:09.400Z,168.75
2019-03-31T09:41:09.460Z,163.125
2019-03-31T09:42:09.525Z,157.5
2019-03-31T09:43:09.596Z,168.75
2019-03-31T09:44:09.639Z,202.5
2019-03-31T09:45:09.698Z,219.375
2019-03-31T09:46:10.046Z,219.375
2019-03-31T09:47:09.825Z,219.375
2019-03-31T09:48:09.907Z,219.375
2019-03-31T09:49:09.986Z,219.375
2019-03-31T09:50:10.054Z,202.5
2019-03-31T09:51:11.172Z,213.75
2019-03-31T09:52:11.262Z,225
2019-03-31T09:53:10.449Z,236.25
2019-03-31T09:54:10.332Z,258.75
2019-03-31T09:55:10.361Z,309.375
2019-03-31T09:56:10.407Z,388.125
2019-03-31T09:57:10.459Z,421.875
2019-03-31T09:58:10.584Z,399.375
2019-03-31T09:59:10.582Z,348.75
2019-03-31T10:00:10.585Z,365.625
2019-03-31T10:01:10.696Z,382.5
2019-03-31T10:02:10.779Z,399.375
2019-03-31T10:03:10.897Z,399.375
2019-03-31T10:04:10.937Z,337.5
2019-03-31T10:05:11.003Z,286.875
2019-03-31T10:06:11.384Z,270
2019-03-31T10:07:12.174Z,270
2019-03-31T10:08:11.521Z,298.125
2019-03-31T10:09:12.220Z,337.5
2019-03-31T10:10:11.221Z,354.375
2019-03-31T10:11:11.267Z,348.75
2019-03-31T10:12:11.298Z,337.5
2019-03-31T10:13:11.405Z,315
2019-03-31T10:14:11.451Z,281.25
2019-03-31T10:15:11.588Z,270
2019-03-31T10:16:11.594Z,258.75
2019-03-31T10:17:11.625Z,253.125
2019-03-31T10:18:11.727Z,247.5
2019-03-31T10:19:11.868Z,241.875
2019-03-31T10:20:11.953Z,225
2019-03-31T10:21:12.002Z,219.375
2019-03-31T10:22:12.044Z,225
2019-03-31T10:23:12.110Z,219.375
2019-03-31T10:24:12.192Z,225
2019-03-31T10:25:13.386Z,213.75
2019-03-31T10:26:15.936Z,208.125
2019-03-31T10:27:13.283Z,208.125
2019-03-31T10:28:12.332Z,225
2019-03-31T10:29:12.401Z,241.875
2019-03-31T10:30:12.522Z,247.5
2019-03-31T10:31:12.670Z,241.875
2019-03-31T10:32:12.760Z,225
2019-03-31T10:33:12.817Z,230.625
2019-03-31T10:34:12.918Z,213.75
2019-03-31T10:35:13.062Z,196.875
2019-03-31T10:36:13.037Z,180
2019-03-31T10:37:13.087Z,168.75
2019-03-31T10:38:13.119Z,157.5
2019-03-31T10:39:14.208Z,151.875
2019-03-31T10:40:13.242Z,146.25
2019-03-31T10:41:13.324Z,135
2019-03-31T10:42:13.369Z,129.375
2019-03-31T10:43:13.408Z,129.375
2019-03-31T10:44:13.483Z,123.75
2019-03-31T10:45:13.523Z,129.375
2019-03-31T10:46:13.600Z,146.25
2019-03-31T10:47:13.645Z,151.875
2019-03-31T10:48:20.007Z,163.125
2019-03-31T10:49:14.707Z,185.625
2019-03-31T10:50:13.756Z,208.125
2019-03-31T10:51:13.811Z,225
2019-03-31T10:52:13.922Z,213.75
2019-03-31T10:53:13.958Z,213.75
2019-03-31T10:54:14.033Z,208.125
2019-03-31T10:55:14.083Z,208.125
2019-03-31T10:56:14.129Z,213.75
2019-03-31T10:57:14.176Z,219.375
2019-03-31T10:58:14.210Z,230.625
2019-03-31T10:59:14.312Z,236.25
2019-03-31T11:00:14.388Z,230.625
2019-03-31T11:01:14.430Z,225
2019-03-31T11:02:14.487Z,225
2019-03-31T11:03:14.530Z,208.125
2019-03-31T11:04:14.606Z,213.75
2019-03-31T11:05:14.650Z,208.125
2019-03-31T11:06:14.739Z,208.125
2019-03-31T11:07:14.800Z,202.5
2019-03-31T11:08:14.870Z,202.5
2019-03-31T11:09:14.956Z,202.5
2019-03-31T11:10:14.998Z,191.25
2019-03-31T11:11:15.047Z,180
2019-03-31T11:12:15.092Z,163.125
2019-03-31T11:13:15.642Z,168.75
2019-03-31T11:14:15.221Z,191.25
2019-03-31T11:15:15.269Z,213.75
2019-03-31T11:16:15.341Z,236.25
2019-03-31T11:17:15.389Z,258.75
2019-03-31T11:18:15.512Z,264.375
2019-03-31T11:19:15.561Z,275.625
2019-03-31T11:20:15.563Z,298.125
2019-03-31T11:21:15.695Z,320.625
2019-03-31T11:22:15.589Z,343.125
2019-03-31T11:23:15.695Z,331.875
2019-03-31T11:24:15.803Z,331.875
2019-03-31T11:25:21.129Z,343.125
2019-03-31T11:26:16.854Z,343.125
2019-03-31T11:27:15.868Z,320.625
2019-03-31T11:28:15.926Z,286.875
2019-03-31T11:29:16.101Z,286.875
2019-03-31T11:30:16.106Z,292.5
2019-03-31T11:31:17.905Z,303.75
2019-03-31T11:32:16.311Z,315
2019-03-31T11:33:16.400Z,326.25
2019-03-31T11:34:19.556Z,354.375
2019-03-31T11:35:16.608Z,410.625
2019-03-31T11:36:16.725Z,523.125
2019-03-31T11:37:16.652Z,568.125
2019-03-31T11:38:16.653Z,826.875
2019-03-31T11:39:16.755Z,618.75
2019-03-31T11:40:16.727Z,1383.75
2019-03-31T11:41:16.892Z,1524.375
2019-03-31T11:42:16.964Z,911.25
2019-03-31T11:43:17.119Z,1141.875
2019-03-31T11:44:17.304Z,1541.25
2019-03-31T11:45:17.296Z,1603.125
2019-03-31T11:46:17.478Z,1096.875
2019-03-31T11:47:17.464Z,1395
2019-03-31T11:48:17.587Z,635.625
2019-03-31T11:49:17.696Z,478.125
2019-03-31T11:50:17.713Z,393.75
2019-03-31T11:51:17.757Z,348.75
2019-03-31T11:52:17.834Z,320.625
2019-03-31T11:53:17.915Z,298.125
2019-03-31T11:54:17.984Z,275.625
2019-03-31T11:55:18.105Z,264.375
2019-03-31T11:56:18.233Z,258.75
2019-03-31T11:57:18.323Z,264.375
2019-03-31T11:58:18.438Z,258.75
2019-03-31T11:59:20.772Z,253.125
2019-03-31T12:00:18.689Z,236.25
2019-03-31T12:01:18.727Z,225
2019-03-31T12:02:26.700Z,230.625
2019-03-31T12:03:19.813Z,247.5
2019-03-31T12:04:18.809Z,264.375
2019-03-31T12:05:18.829Z,275.625
2019-03-31T12:06:18.876Z,298.125
2019-03-31T12:07:27.597Z,320.625
2019-03-31T12:08:19.904Z,348.75
2019-03-31T12:09:19.006Z,410.625
2019-03-31T12:10:19.929Z,489.375
2019-03-31T12:11:19.123Z,1001.25
2019-03-31T12:12:19.172Z,438.75
2019-03-31T12:13:19.224Z,416.25
2019-03-31T12:14:19.267Z,438.75
2019-03-31T12:15:19.371Z,472.5
2019-03-31T12:16:19.442Z,444.375
2019-03-31T12:17:19.493Z,343.125
2019-03-31T12:18:19.547Z,258.75
2019-03-31T12:19:19.647Z,225
2019-03-31T12:20:19.748Z,208.125
2019-03-31T12:21:19.817Z,202.5
2019-03-31T12:22:19.880Z,196.875
2019-03-31T12:23:19.987Z,202.5
2019-03-31T12:24:20.050Z,208.125
2019-03-31T12:25:20.281Z,230.625
2019-03-31T12:26:21.198Z,247.5
2019-03-31T12:27:20.238Z,264.375
2019-03-31T12:28:20.287Z,286.875
2019-03-31T12:29:20.364Z,371.25
2019-03-31T12:30:20.448Z,281.25
2019-03-31T12:31:20.509Z,264.375
2019-03-31T12:32:20.565Z,264.375
2019-03-31T12:33:20.612Z,241.875
2019-03-31T12:34:20.681Z,213.75
2019-03-31T12:35:20.751Z,202.5
2019-03-31T12:36:20.808Z,191.25
2019-03-31T12:37:20.840Z,191.25
2019-03-31T12:38:21.886Z,202.5
2019-03-31T12:39:20.937Z,225
2019-03-31T12:40:21.014Z,241.875
2019-03-31T12:41:21.087Z,241.875
2019-03-31T12:42:21.132Z,225
2019-03-31T12:43:21.174Z,219.375
2019-03-31T12:44:21.218Z,225
2019-03-31T12:45:21.282Z,247.5
2019-03-31T12:46:21.344Z,275.625
2019-03-31T12:47:21.387Z,292.5
2019-03-31T12:48:21.428Z,303.75
2019-03-31T12:49:21.481Z,281.25
2019-03-31T12:50:21.556Z,264.375
2019-03-31T12:51:21.601Z,258.75
2019-03-31T12:52:21.653Z,270
2019-03-31T12:53:21.696Z,303.75
2019-03-31T12:54:21.735Z,331.875
2019-03-31T12:55:21.819Z,360
2019-03-31T12:56:21.858Z,360
2019-03-31T12:57:21.901Z,315
2019-03-31T12:58:21.954Z,264.375
2019-03-31T12:59:22.001Z,241.875
2019-03-31T13:00:22.060Z,230.625
2019-03-31T13:01:22.130Z,230.625
2019-03-31T13:02:22.199Z,236.25
2019-03-31T13:03:22.252Z,230.625
2019-03-31T13:04:22.325Z,303.75
2019-03-31T13:05:22.399Z,241.875
2019-03-31T13:06:22.466Z,225
2019-03-31T13:07:22.534Z,219.375
2019-03-31T13:08:22.577Z,208.125
2019-03-31T13:09:22.621Z,196.875
2019-03-31T13:10:22.706Z,191.25
2019-03-31T13:11:23.750Z,180
2019-03-31T13:12:22.799Z,168.75
2019-03-31T13:13:22.864Z,163.125
2019-03-31T13:14:22.975Z,163.125
2019-03-31T13:15:23.069Z,157.5
2019-03-31T13:16:23.038Z,157.5
2019-03-31T13:17:23.125Z,157.5
2019-03-31T13:18:23.157Z,151.875
2019-03-31T13:19:23.226Z,151.875
2019-03-31T13:20:23.291Z,151.875
2019-03-31T13:21:23.340Z,151.875